createdAt,value
2022-11-30T00:03:38.208Z,3.72
2022-11-30T00:07:39.771Z,3.73
2022-11-30T00:11:41.279Z,3.61
2022-11-30T00:15:42.705Z,3.71
2022-11-30T00:19:44.138Z,3.73
2022-11-30T00:23:47.269Z,3.73
2022-11-30T00:27:48.720Z,3.55
2022-11-30T00:31:50.230Z,3.60
2022-11-30T00:35:59.974Z,3.62
2022-11-30T00:40:01.531Z,3.70
2022-11-30T00:44:03.016Z,3.68
2022-11-30T00:48:04.555Z,3.63
2022-11-30T00:52:06.422Z,3.64
2022-11-30T00:56:09.514Z,3.47
2022-11-30T01:00:11.342Z,3.52
2022-11-30T01:04:12.775Z,3.53
2022-11-30T01:08:14.413Z,3.49
2022-11-30T01:12:18.269Z,3.61
2022-11-30T01:16:29.424Z,3.59
2022-11-30T01:20:30.962Z,3.55
2022-11-30T01:24:32.407Z,3.62
2022-11-30T01:28:34.247Z,3.49
2022-11-30T01:32:35.856Z,3.31
2022-11-30T01:36:38.908Z,3.49
2022-11-30T01:40:40.328Z,3.35
2022-11-30T01:44:51.428Z,3.39
2022-11-30T01:49:12.082Z,3.49
2022-11-30T01:53:14.052Z,3.28
2022-11-30T01:57:24.627Z,3.40
2022-11-30T02:01:26.236Z,3.34
2022-11-30T02:05:28.160Z,3.35
2022-11-30T02:09:31.563Z,3.30
2022-11-30T02:13:47.618Z,3.32
2022-11-30T02:18:11.726Z,3.24
2022-11-30T02:22:55.019Z,3.33
2022-11-30T02:27:26.715Z,3.30
2022-11-30T02:31:40.154Z,3.38
2022-11-30T02:35:50.252Z,3.29
2022-11-30T02:39:55.026Z,3.34
2022-11-30T02:43:56.496Z,3.40
2022-11-30T02:48:12.064Z,3.26
2022-11-30T02:52:14.990Z,3.14
2022-11-30T02:56:17.722Z,3.31
2022-11-30T03:00:19.761Z,3.20
2022-11-30T03:04:21.176Z,3.25
2022-11-30T03:08:22.738Z,3.25
2022-11-30T03:12:24.242Z,3.25
2022-11-30T03:16:25.726Z,3.33
2022-11-30T03:20:27.164Z,3.28
2022-11-30T03:24:28.599Z,3.28
2022-11-30T03:28:30.175Z,3.20
2022-11-30T03:32:31.584Z,3.27
2022-11-30T03:36:33.112Z,3.24
2022-11-30T03:40:36.630Z,3.11
2022-11-30T03:44:38.154Z,3.24
2022-11-30T03:48:41.314Z,3.14
2022-11-30T03:52:42.766Z,3.27
2022-11-30T03:56:44.201Z,3.24
2022-11-30T04:00:45.673Z,3.31
2022-11-30T04:04:47.332Z,3.12
2022-11-30T04:08:49.358Z,3.32
2022-11-30T04:12:50.812Z,3.24
2022-11-30T04:16:52.314Z,3.30
2022-11-30T04:20:56.032Z,3.26
2022-11-30T04:24:57.458Z,3.19
2022-11-30T04:29:03.237Z,3.18
2022-11-30T04:33:06.586Z,3.04
2022-11-30T04:37:07.993Z,3.04
2022-11-30T04:41:09.546Z,3.07
2022-11-30T04:45:11.541Z,3.21
2022-11-30T04:49:12.986Z,3.21
2022-11-30T04:53:14.433Z,3.11
2022-11-30T04:57:15.885Z,3.11
2022-11-30T05:01:17.338Z,3.09
2022-11-30T05:05:18.837Z,3.04
2022-11-30T05:09:20.225Z,3.04
2022-11-30T05:13:23.387Z,3.11
2022-11-30T05:17:24.814Z,3.01
2022-11-30T05:21:26.319Z,3.10
2022-11-30T05:25:27.814Z,3.07
2022-11-30T05:29:29.263Z,2.91
2022-11-30T05:33:30.751Z,2.88
2022-11-30T05:37:32.253Z,2.92
2022-11-30T05:41:33.705Z,2.96
2022-11-30T05:45:35.169Z,2.99
2022-11-30T05:49:36.562Z,3.00
2022-11-30T05:53:38.641Z,2.87
2022-11-30T05:57:40.809Z,2.84
2022-11-30T06:01:42.278Z,2.89
2022-11-30T06:05:43.752Z,2.91
2022-11-30T06:09:45.173Z,3.01
2022-11-30T06:13:46.602Z,3.01
2022-11-30T06:17:48.065Z,2.91
2022-11-30T06:21:49.484Z,2.89
2022-11-30T06:25:50.919Z,3.12
2022-11-30T06:29:52.323Z,3.01
2022-11-30T06:33:57.559Z,3.00
2022-11-30T06:38:00.505Z,3.11
2022-11-30T06:42:01.909Z,2.97
2022-11-30T06:46:04.081Z,2.97
2022-11-30T06:50:06.269Z,2.92
2022-11-30T06:54:07.942Z,3.01
2022-11-30T06:58:10.355Z,2.97
2022-11-30T07:02:17.409Z,3.00
2022-11-30T07:06:19.883Z,3.12
2022-11-30T07:10:22.850Z,3.05
2022-11-30T07:14:25.448Z,3.00
2022-11-30T07:18:31.613Z,3.03
2022-11-30T07:22:33.617Z,3.17
2022-11-30T07:26:35.053Z,3.09
2022-11-30T07:30:36.452Z,3.09
2022-11-30T07:34:37.918Z,3.25
2022-11-30T07:38:39.586Z,3.08
2022-11-30T07:42:41.772Z,3.01
2022-11-30T07:46:43.312Z,3.12
2022-11-30T07:50:44.774Z,3.19
2022-11-30T07:54:46.601Z,3.15
2022-11-30T07:58:49.869Z,3.16
2022-11-30T08:02:51.633Z,3.37
2022-11-30T08:06:54.748Z,3.26
2022-11-30T08:10:57.033Z,3.30
2022-11-30T08:15:19.456Z,3.23
2022-11-30T08:19:20.424Z,3.34
2022-11-30T08:23:21.861Z,3.24
2022-11-30T08:27:23.353Z,3.48
2022-11-30T08:31:24.860Z,3.50
2022-11-30T08:35:26.351Z,3.52
2022-11-30T08:39:31.428Z,3.48
2022-11-30T08:43:33.374Z,3.54
2022-11-30T08:47:34.888Z,3.65
2022-11-30T08:52:00.755Z,3.55
2022-11-30T08:55:59.698Z,3.64
2022-11-30T09:00:01.103Z,3.71
2022-11-30T09:04:02.532Z,3.77
2022-11-30T09:08:04.213Z,3.88
2022-11-30T09:12:07.143Z,3.85
2022-11-30T09:16:09.185Z,4.01
2022-11-30T09:20:11.297Z,3.84
2022-11-30T09:24:12.748Z,3.79
2022-11-30T09:28:14.198Z,4.01
2022-11-30T09:32:15.669Z,4.01
2022-11-30T09:36:22.029Z,4.23
2022-11-30T09:40:24.089Z,4.28
2022-11-30T09:44:51.033Z,4.34
2022-11-30T09:49:42.623Z,4.32
2022-11-30T09:53:49.178Z,4.35
2022-11-30T09:57:57.509Z,4.43
2022-11-30T10:02:04.188Z,4.47
2022-11-30T10:06:11.131Z,4.72
2022-11-30T10:10:34.880Z,4.80
2022-11-30T10:15:02.807Z,5.02
2022-11-30T10:19:22.456Z,5.01
2022-11-30T10:23:59.393Z,4.97
2022-11-30T10:28:45.692Z,4.99
2022-11-30T10:32:43.695Z,4.97
2022-11-30T10:37:07.743Z,5.03
2022-11-30T10:41:18.295Z,4.96
2022-11-30T10:45:24.786Z,4.86
2022-11-30T10:49:29.338Z,5.19
2022-11-30T10:53:32.569Z,5.15
2022-11-30T10:57:34.061Z,4.89
2022-11-30T11:01:38.114Z,4.91
2022-11-30T11:05:40.181Z,4.91
2022-11-30T11:09:47.056Z,5.03
2022-11-30T11:13:48.990Z,5.01
2022-11-30T11:17:51.769Z,5.05
2022-11-30T11:21:53.775Z,5.11
2022-11-30T11:25:55.634Z,5.42
2022-11-30T11:30:00.186Z,5.31
2022-11-30T11:34:03.226Z,5.39
2022-11-30T11:38:28.212Z,5.48
2022-11-30T11:42:34.271Z,5.63
2022-11-30T11:46:39.337Z,5.68
2022-11-30T11:55:06.184Z,5.60
2022-11-30T11:59:10.720Z,5.41
2022-11-30T12:03:30.001Z,5.53
2022-11-30T12:07:57.552Z,5.88
2022-11-30T12:11:59.061Z,5.58
2022-11-30T12:16:08.561Z,5.70
2022-11-30T12:20:15.756Z,5.86
2022-11-30T12:25:05.642Z,5.70
2022-11-30T12:29:29.957Z,5.97
2022-11-30T12:33:31.353Z,5.92
2022-11-30T12:38:01.858Z,5.98
2022-11-30T12:42:12.322Z,5.84
2022-11-30T12:46:27.272Z,5.96
2022-11-30T12:50:52.105Z,5.98
2022-11-30T12:55:24.143Z,6.39
2022-11-30T12:59:51.890Z,6.79
2022-11-30T13:04:04.044Z,7.35
2022-11-30T13:08:20.202Z,7.08
2022-11-30T13:12:36.845Z,6.87
2022-11-30T13:16:39.736Z,6.57
2022-11-30T13:21:06.999Z,6.55
2022-11-30T13:25:51.948Z,6.37
2022-11-30T13:30:37.365Z,6.50
2022-11-30T13:34:39.787Z,6.15
2022-11-30T13:38:41.237Z,5.82
2022-11-30T13:42:51.345Z,5.68
2022-11-30T13:46:53.652Z,5.18
2022-11-30T13:50:55.195Z,4.67
2022-11-30T13:54:58.178Z,4.14
2022-11-30T13:59:35.823Z,4.04
2022-11-30T14:03:38.925Z,3.78
2022-11-30T14:07:40.425Z,3.61
2022-11-30T14:11:42.900Z,3.24
2022-11-30T14:15:44.268Z,2.80
2022-11-30T14:19:49.608Z,2.47
2022-11-30T14:24:23.485Z,2.37
2022-11-30T14:28:41.305Z,2.18
2022-11-30T14:32:49.067Z,1.86
2022-11-30T14:37:00.499Z,1.54
2022-11-30T14:41:01.954Z,1.85
2022-11-30T14:45:04.044Z,1.70
2022-11-30T14:49:21.127Z,1.61
2022-11-30T14:53:55.046Z,1.66
2022-11-30T14:58:08.441Z,1.59
2022-11-30T15:02:31.548Z,1.45
2022-11-30T15:06:33.810Z,1.58
2022-11-30T15:10:36.054Z,1.58
2022-11-30T15:14:37.516Z,1.42
2022-11-30T15:18:39.049Z,1.20
2022-11-30T15:22:40.523Z,1.19
2022-11-30T15:27:11.084Z,0.98
2022-11-30T15:31:15.928Z,1.01
2022-11-30T15:35:20.193Z,0.89
2022-11-30T15:39:24.196Z,0.82
2022-11-30T15:43:25.873Z,0.94
2022-11-30T15:47:36.858Z,0.91
2022-11-30T15:51:44.138Z,0.91
2022-11-30T15:55:46.588Z,0.81
2022-11-30T16:00:16.297Z,0.94
2022-11-30T16:04:17.786Z,0.93
2022-11-30T16:08:19.286Z,0.97
2022-11-30T16:12:31.436Z,1.03
2022-11-30T16:16:33.179Z,0.90
2022-11-30T16:20:34.705Z,0.77
2022-11-30T16:24:37.094Z,0.76
2022-11-30T16:28:38.920Z,0.78
2022-11-30T16:32:40.475Z,0.75
2022-11-30T16:36:41.951Z,0.78
2022-11-30T16:40:43.396Z,0.89
2022-11-30T16:44:44.949Z,0.71
2022-11-30T16:48:47.212Z,1.02
2022-11-30T16:52:48.850Z,1.20
2022-11-30T16:56:50.419Z,1.09
2022-11-30T17:00:51.978Z,1.17
2022-11-30T17:04:53.470Z,1.08
2022-11-30T17:08:54.961Z,1.07
2022-11-30T17:12:56.524Z,1.00
2022-11-30T17:16:57.999Z,1.03
2022-11-30T17:20:59.964Z,0.88
2022-11-30T17:25:01.468Z,0.90
2022-11-30T17:29:03.582Z,0.79
2022-11-30T17:33:05.041Z,0.90
2022-11-30T17:37:06.639Z,0.82
2022-11-30T17:41:12.996Z,0.83
2022-11-30T17:45:17.249Z,0.97
2022-11-30T17:49:18.785Z,0.85
2022-11-30T17:53:20.546Z,0.86
2022-11-30T17:57:22.185Z,0.95
2022-11-30T18:01:27.291Z,0.90
2022-11-30T18:05:28.845Z,0.90
2022-11-30T18:09:30.550Z,0.94
2022-11-30T18:13:32.204Z,0.99
2022-11-30T18:17:34.353Z,0.95
2022-11-30T18:21:35.830Z,0.98
2022-11-30T18:25:37.372Z,0.97
2022-11-30T18:29:38.880Z,0.86
2022-11-30T18:33:40.384Z,0.79
2022-11-30T18:37:41.897Z,0.82
2022-11-30T18:41:46.350Z,0.70
2022-11-30T18:45:49.415Z,0.85
2022-11-30T18:49:50.987Z,0.92
2022-11-30T18:54:04.582Z,0.84
2022-11-30T18:58:06.084Z,0.86
2022-11-30T19:02:09.111Z,0.83
2022-11-30T19:06:11.424Z,0.86
2022-11-30T19:10:12.939Z,0.84
2022-11-30T19:14:16.986Z,0.74
2022-11-30T19:18:23.082Z,0.67
2022-11-30T19:22:31.068Z,0.61
2022-11-30T19:26:36.166Z,0.66
2022-11-30T19:30:39.477Z,0.69
2022-11-30T19:34:40.970Z,0.74
2022-11-30T19:38:46.227Z,0.52
2022-11-30T19:42:47.879Z,0.61
2022-11-30T19:46:52.190Z,0.76
2022-11-30T19:50:53.925Z,0.82
2022-11-30T19:55:03.286Z,0.65
2022-11-30T19:59:09.339Z,0.51
2022-11-30T20:03:10.947Z,0.61
2022-11-30T20:07:13.821Z,0.61
2022-11-30T20:11:16.311Z,0.68
2022-11-30T20:15:17.865Z,0.55
2022-11-30T20:19:19.399Z,0.67
2022-11-30T20:23:20.862Z,0.72
2022-11-30T20:27:24.880Z,0.67
2022-11-30T20:31:28.632Z,0.72
2022-11-30T20:35:46.787Z,0.77
2022-11-30T20:39:48.318Z,0.80
2022-11-30T20:43:51.740Z,0.70
2022-11-30T20:47:53.197Z,0.75
2022-11-30T20:51:54.665Z,0.70
2022-11-30T20:55:59.926Z,0.76
2022-11-30T21:00:01.430Z,0.48
2022-11-30T21:04:03.189Z,0.58
2022-11-30T21:08:05.776Z,0.66
2022-11-30T21:12:08.762Z,0.50
2022-11-30T21:16:13.648Z,0.52
2022-11-30T21:20:15.211Z,0.45
2022-11-30T21:24:16.642Z,0.40
2022-11-30T21:28:20.281Z,0.45
2022-11-30T21:32:21.817Z,0.47
2022-11-30T21:36:23.793Z,0.43
2022-11-30T21:40:25.253Z,0.29
2022-11-30T21:44:26.762Z,0.34
2022-11-30T21:48:29.827Z,0.29
2022-11-30T21:52:31.362Z,0.30
2022-11-30T21:56:35.748Z,0.57
2022-11-30T22:00:37.650Z,1.16
2022-11-30T22:04:39.146Z,0.90
2022-11-30T22:08:41.276Z,0.26
2022-11-30T22:12:42.809Z,0.08
2022-11-30T22:16:44.839Z,0.24
2022-11-30T22:20:46.252Z,0.12
2022-11-30T22:24:47.739Z,0.16
2022-11-30T22:29:00.765Z,0.16
2022-11-30T22:33:02.169Z,0.13
2022-11-30T22:37:03.622Z,0.20
2022-11-30T22:41:06.224Z,0.04
2022-11-30T22:45:08.091Z,0.17
2022-11-30T22:49:17.147Z,0.06
2022-11-30T22:53:21.535Z,0.19
2022-11-30T22:57:22.907Z,0.09
2022-11-30T23:01:26.529Z,0.18
2022-11-30T23:05:27.960Z,0.03
2022-11-30T23:09:29.353Z,0.20
2022-11-30T23:13:31.199Z,0.06
2022-11-30T23:17:32.628Z,0.11
2022-11-30T23:21:42.344Z,0.01
2022-11-30T23:25:43.870Z,0.03
2022-11-30T23:29:45.486Z,0.13
2022-11-30T23:33:47.858Z,0.17
2022-11-30T23:37:50.091Z,0.22
2022-11-30T23:41:51.598Z,0.12
2022-11-30T23:45:53.032Z,0.16
2022-11-30T23:49:54.554Z,0.20
2022-11-30T23:53:56.054Z,0.32
2022-11-30T23:57:57.515Z,0.30
